Time;durP1;ratioP1;P1;durP2;ratioP2;P2;SDS_P1;SDS_P2;PMS_P1;PMS_P2;Temp;Humidity;BMP_temperature;BMP_pressure;BME280_temperature;BME280_humidity;BME280_pressure;Samples;Min_cycle;Max_cycle;Signal;HPM_P1;HPM_P2
2022/04/21 00:02:10;;;;;;;13.43;8.43;;;14.90;76.50;;;;;;5069491;28;20442;-68
2022/04/21 00:04:36;;;;;;;13.70;8.50;;;14.80;76.60;;;;;;5071015;28;20442;-66
2022/04/21 00:07:02;;;;;;;10.93;8.40;;;14.80;76.70;;;;;;5086660;28;20405;-65
2022/04/21 00:09:28;;;;;;;12.07;8.60;;;14.80;76.70;;;;;;5088665;28;20539;-68
2022/04/21 00:11:53;;;;;;;14.50;9.30;;;14.80;76.90;;;;;;5086531;28;20405;-67
2022/04/21 00:14:19;;;;;;;14.97;9.77;;;14.80;77.00;;;;;;5071659;28;20914;-67
2022/04/21 00:16:45;;;;;;;12.88;9.82;;;14.80;77.20;;;;;;5054594;28;20428;-66
2022/04/21 00:19:10;;;;;;;14.98;10.18;;;14.70;77.40;;;;;;5089633;28;20410;-64
2022/04/21 00:24:20;;;;;;;13.77;10.00;;;14.70;77.80;;;;;;5089302;28;20418;-64
2022/04/21 00:26:46;;;;;;;14.38;9.13;;;14.60;77.90;;;;;;5087765;28;20434;-65
2022/04/21 00:29:13;;;;;;;13.47;8.90;;;14.50;78.00;;;;;;5089556;28;20430;-66
2022/04/21 00:31:39;;;;;;;14.77;9.13;;;14.50;78.00;;;;;;5086755;28;20451;-65
2022/04/21 00:34:05;;;;;;;12.02;8.90;;;14.50;78.20;;;;;;5090218;28;20503;-66
2022/04/21 00:36:30;;;;;;;13.25;8.85;;;14.50;78.40;;;;;;5068121;28;20393;-66
2022/04/21 00:38:56;;;;;;;14.90;9.13;;;14.50;78.70;;;;;;5091072;28;20499;-66
2022/04/21 00:41:22;;;;;;;12.15;8.77;;;14.40;78.90;;;;;;5088528;28;20425;-65
2022/04/21 00:43:47;;;;;;;10.52;8.38;;;14.40;79.00;;;;;;5088781;28;20470;-65
2022/04/21 00:46:19;;;;;;;13.33;8.50;;;14.40;79.20;;;;;;5063155;28;20424;-66
2022/04/21 00:48:45;;;;;;;14.77;8.77;;;14.30;79.30;;;;;;5071050;28;20416;-66
2022/04/21 00:51:12;;;;;;;12.60;8.45;;;14.30;79.60;;;;;;5089248;28;20417;-67
2022/04/21 00:53:38;;;;;;;13.48;8.50;;;14.30;79.70;;;;;;5086532;28;21034;-65
2022/04/21 00:56:06;;;;;;;13.90;8.50;;;14.20;79.80;;;;;;5087430;28;20402;-67
2022/04/21 00:58:35;;;;;;;14.75;8.95;;;14.20;79.80;;;;;;5082937;28;20521;-65
2022/04/21 01:01:02;;;;;;;10.73;8.23;;;14.20;80.10;;;;;;5083610;28;20418;-65
2022/04/21 01:03:28;;;;;;;12.20;8.13;;;14.10;80.00;;;;;;5086224;28;20414;-66
2022/04/21 01:05:54;;;;;;;10.73;8.15;;;14.10;80.20;;;;;;5087283;28;20508;-66
2022/04/21 01:08:20;;;;;;;12.98;8.95;;;14.10;80.40;;;;;;5085397;28;20417;-65
2022/04/21 01:10:47;;;;;;;16.55;8.88;;;14.10;80.50;;;;;;5086456;28;20842;-65
2022/04/21 01:13:12;;;;;;;13.75;8.57;;;14.00;80.70;;;;;;5086134;28;20417;-66
2022/04/21 01:15:40;;;;;;;13.65;8.60;;;14.00;80.80;;;;;;5086394;28;20414;-64
2022/04/21 01:18:07;;;;;;;12.07;8.57;;;14.00;80.90;;;;;;5083644;28;20491;-65
2022/04/21 01:20:33;;;;;;;12.43;8.75;;;14.00;81.00;;;;;;5085717;28;20409;-66
2022/04/21 01:22:59;;;;;;;14.05;8.60;;;14.00;81.00;;;;;;5085354;28;20770;-66
2022/04/21 01:25:25;;;;;;;12.77;8.27;;;13.90;81.10;;;;;;5088621;28;20427;-68
2022/04/21 01:27:56;;;;;;;12.93;8.98;;;14.00;81.30;;;;;;5080760;28;20520;-65
2022/04/21 01:30:22;;;;;;;12.63;8.37;;;13.90;81.40;;;;;;5088334;28;20878;-65
2022/04/21 01:32:49;;;;;;;12.77;8.55;;;13.90;81.50;;;;;;5067698;28;20409;-66
2022/04/21 01:35:15;;;;;;;12.30;8.50;;;13.90;82.50;;;;;;5089107;28;20425;-67
2022/04/21 01:43:11;;;;;;;13.20;8.68;;;13.80;82.40;;;;;;5068736;28;20449;-66
2022/04/21 01:45:37;;;;;;;14.60;8.57;;;13.80;82.50;;;;;;5069128;28;20440;-66
2022/04/21 01:48:03;;;;;;;14.73;8.68;;;13.80;82.70;;;;;;5086063;28;20413;-65
2022/04/21 01:50:29;;;;;;;13.38;8.95;;;13.70;82.80;;;;;;5088352;28;20406;-67
2022/04/21 01:52:58;;;;;;;12.55;8.82;;;13.70;82.80;;;;;;5090725;28;20416;-66
2022/04/21 01:55:24;;;;;;;14.88;9.20;;;13.70;82.90;;;;;;5084875;28;20504;-67
2022/04/21 01:57:50;;;;;;;14.48;9.15;;;13.70;82.90;;;;;;5087582;28;20513;-68
2022/04/21 02:00:16;;;;;;;14.00;8.97;;;13.70;83.00;;;;;;5085330;28;20850;-66
2022/04/21 02:02:42;;;;;;;14.73;8.87;;;13.60;83.00;;;;;;5086916;28;20899;-66
2022/04/21 02:05:08;;;;;;;13.43;8.85;;;13.60;83.10;;;;;;5087236;28;20902;-66
2022/04/21 02:07:36;;;;;;;11.88;8.77;;;13.60;83.40;;;;;;5069605;28;20421;-66
2022/04/21 02:10:05;;;;;;;14.15;9.10;;;13.60;83.60;;;;;;5087665;28;20444;-68
2022/04/21 02:12:31;;;;;;;13.80;9.10;;;13.50;83.40;;;;;;5085795;28;20882;-65
2022/04/21 02:14:57;;;;;;;12.85;8.90;;;13.50;83.50;;;;;;5085740;28;20429;-65
2022/04/21 02:17:25;;;;;;;13.57;9.10;;;13.50;83.80;;;;;;5086256;28;20530;-66
2022/04/21 02:19:51;;;;;;;14.43;9.40;;;13.50;84.00;;;;;;5088237;28;20421;-64
2022/04/21 02:22:16;;;;;;;15.77;9.57;;;13.40;84.00;;;;;;5086206;28;20405;-65
2022/04/21 02:24:42;;;;;;;13.07;9.15;;;13.50;84.00;;;;;;5086211;28;20500;-66
2022/04/21 02:27:08;;;;;;;13.57;8.93;;;13.40;84.80;;;;;;5086021;28;20406;-65
2022/04/21 02:29:34;;;;;;;12.70;9.23;;;13.40;84.10;;;;;;5086259;28;20517;-67
2022/04/21 02:32:01;;;;;;;14.70;9.00;;;13.40;84.30;;;;;;5085577;28;20877;-67
2022/04/21 02:34:28;;;;;;;16.77;9.37;;;13.40;84.60;;;;;;5068187;28;20430;-65
2022/04/21 02:36:54;;;;;;;14.10;9.30;;;13.30;84.60;;;;;;5085246;28;20815;-65
2022/04/21 02:39:20;;;;;;;13.38;9.02;;;13.30;84.50;;;;;;5084003;28;20436;-66
2022/04/21 02:41:46;;;;;;;13.50;8.83;;;13.30;84.70;;;;;;5085747;28;20842;-66
2022/04/21 02:44:11;;;;;;;12.80;9.18;;;13.30;84.60;;;;;;5084312;28;20421;-63
2022/04/21 02:46:37;;;;;;;14.80;8.53;;;13.30;84.80;;;;;;5099145;28;20398;-65
2022/04/21 02:49:03;;;;;;;13.20;9.18;;;13.20;85.10;;;;;;5087743;28;20774;-65
2022/04/21 02:51:32;;;;;;;12.03;9.00;;;13.20;85.30;;;;;;5085567;28;20406;-65
2022/04/21 02:59:27;;;;;;;11.98;8.32;;;13.10;85.60;;;;;;5066769;28;20647;-66
2022/04/21 03:01:53;;;;;;;15.13;9.30;;;12.70;86.30;;;;;;5086132;28;20414;-65
2022/04/21 03:04:20;;;;;;;16.05;9.13;;;12.80;86.80;;;;;;5086209;28;20903;-64
2022/04/21 03:06:46;;;;;;;12.40;8.70;;;12.90;86.60;;;;;;5085007;28;20414;-66
2022/04/21 03:09:11;;;;;;;12.40;9.15;;;12.90;86.50;;;;;;5086066;28;20496;-67
2022/04/21 03:11:37;;;;;;;14.57;9.40;;;12.90;86.40;;;;;;5070513;28;20413;-65
2022/04/21 03:14:03;;;;;;;12.37;9.10;;;12.90;86.50;;;;;;5087002;28;20409;-68
2022/04/21 03:16:28;;;;;;;14.07;9.20;;;13.00;86.40;;;;;;5085661;28;20515;-65
2022/04/21 03:18:54;;;;;;;13.27;9.40;;;12.90;86.40;;;;;;5085689;28;20886;-65
2022/04/21 03:24:19;;;;;;;14.23;9.13;;;12.90;86.30;;;;;;5085797;28;20405;-67
2022/04/21 03:26:46;;;;;;;12.70;8.95;;;12.80;86.40;;;;;;5085033;28;20901;-66
2022/04/21 03:29:11;;;;;;;11.57;8.75;;;12.80;86.60;;;;;;5066081;28;20936;-65
2022/04/21 03:31:37;;;;;;;15.07;9.30;;;12.80;86.60;;;;;;5080419;28;20409;-66
2022/04/21 03:34:05;;;;;;;13.55;9.18;;;12.80;86.60;;;;;;5084699;28;20408;-66
2022/04/21 03:36:32;;;;;;;12.98;9.60;;;12.80;86.40;;;;;;5083425;28;20386;-66
2022/04/21 03:38:58;;;;;;;12.68;8.93;;;12.80;86.20;;;;;;5087726;28;20445;-66
2022/04/21 03:41:24;;;;;;;11.82;8.88;;;12.80;86.00;;;;;;5084583;28;20436;-65
2022/04/21 03:43:50;;;;;;;13.53;9.40;;;12.70;85.60;;;;;;5087185;28;20397;-64
2022/04/21 03:46:15;;;;;;;12.20;9.15;;;12.70;85.80;;;;;;5084553;28;20421;-66
2022/04/21 03:48:41;;;;;;;14.23;9.07;;;12.70;85.70;;;;;;5086629;28;20406;-66
2022/04/21 03:51:08;;;;;;;11.98;8.35;;;12.70;85.90;;;;;;5083325;28;20463;-66
2022/04/21 03:53:33;;;;;;;13.38;8.52;;;12.60;86.20;;;;;;5069278;28;20397;-64
2022/04/21 03:55:59;;;;;;;16.07;9.37;;;12.60;86.20;;;;;;5084440;28;20804;-64
2022/04/21 03:58:25;;;;;;;16.73;12.23;;;12.60;86.50;;;;;;5066832;28;20406;-67
2022/04/21 04:00:50;;;;;;;14.20;10.40;;;12.60;86.80;;;;;;5063510;28;20498;-66
2022/04/21 04:03:16;;;;;;;15.68;10.52;;;12.60;87.40;;;;;;5090215;28;20402;-65
2022/04/21 04:05:42;;;;;;;17.53;10.00;;;12.50;87.70;;;;;;5099072;28;20406;-66
2022/04/21 04:10:52;;;;;;;15.80;10.43;;;12.50;88.40;;;;;;5088147;28;20451;-66
2022/04/21 04:13:22;;;;;;;17.02;10.77;;;12.40;88.50;;;;;;5084210;28;20443;-66
2022/04/21 04:15:49;;;;;;;15.20;10.57;;;12.40;88.80;;;;;;5091699;28;20802;-65
2022/04/21 04:18:19;;;;;;;17.63;10.70;;;12.40;88.90;;;;;;5079554;28;20504;-65
2022/04/21 04:20:46;;;;;;;14.80;10.48;;;12.30;89.00;;;;;;5070747;28;20409;-65
2022/04/21 04:23:16;;;;;;;21.48;10.50;;;12.40;89.30;;;;;;5066908;28;20436;-68
2022/04/21 04:25:41;;;;;;;18.95;10.90;;;12.30;89.30;;;;;;5069110;28;20449;-66
2022/04/21 04:28:07;;;;;;;17.80;11.30;;;12.30;89.60;;;;;;5087236;28;20448;-66
2022/04/21 04:30:33;;;;;;;17.27;11.10;;;12.30;89.80;;;;;;5085296;28;21005;-67
2022/04/21 04:32:59;;;;;;;15.00;10.68;;;12.20;89.70;;;;;;5068340;28;20406;-66
2022/04/21 04:35:25;;;;;;;16.65;10.70;;;12.20;89.90;;;;;;5066531;28;20803;-64
2022/04/21 04:37:52;;;;;;;16.85;10.98;;;12.20;90.00;;;;;;5086966;28;20901;-66
2022/04/21 04:40:21;;;;;;;16.95;11.13;;;12.20;90.00;;;;;;5068783;28;20770;-65
2022/04/21 04:42:46;;;;;;;18.07;10.83;;;12.20;90.10;;;;;;5070381;28;20406;-66
2022/04/21 04:47:57;;;;;;;15.35;10.23;;;12.10;90.30;;;;;;5068907;28;20434;-64
2022/04/21 04:50:22;;;;;;;15.20;10.00;;;12.10;90.20;;;;;;5087069;28;20508;-65
2022/04/21 04:52:48;;;;;;;16.40;10.55;;;12.10;90.20;;;;;;5088572;28;20409;-66
2022/04/21 04:55:14;;;;;;;13.03;9.90;;;12.10;90.40;;;;;;5085293;28;20441;-66
2022/04/21 04:57:40;;;;;;;14.02;9.90;;;12.10;90.00;;;;;;5082686;28;20406;-64
2022/04/21 05:00:08;;;;;;;15.80;10.10;;;12.10;90.00;;;;;;5067414;28;20512;-64
2022/04/21 05:02:34;;;;;;;14.48;10.00;;;12.10;90.00;;;;;;5088689;28;20512;-66
2022/04/21 05:05:00;;;;;;;13.77;9.75;;;12.10;90.10;;;;;;5084072;28;20420;-65
2022/04/21 05:07:26;;;;;;;14.60;9.65;;;12.10;90.20;;;;;;5085944;28;20497;-64
2022/04/21 05:09:52;;;;;;;15.55;9.57;;;12.10;90.20;;;;;;5083912;28;20409;-64
2022/04/21 05:12:18;;;;;;;23.17;9.75;;;12.10;90.20;;;;;;5085120;28;20493;-66
2022/04/21 05:14:44;;;;;;;12.70;9.27;;;12.10;90.30;;;;;;5086282;28;20920;-72
2022/04/21 05:17:10;;;;;;;12.82;9.07;;;12.20;90.40;;;;;;5086688;28;20500;-69
2022/04/21 05:19:36;;;;;;;14.30;9.02;;;12.20;90.40;;;;;;5083913;28;20501;-69
2022/04/21 05:22:03;;;;;;;13.10;8.85;;;12.30;90.30;;;;;;5085229;28;20482;-66
2022/04/21 05:24:31;;;;;;;14.90;9.20;;;12.30;90.10;;;;;;5088659;28;20440;-67
2022/04/21 05:26:57;;;;;;;12.87;8.87;;;12.30;90.00;;;;;;5050022;28;20421;-67
2022/04/21 05:32:08;;;;;;;12.68;8.95;;;12.30;90.00;;;;;;5083172;28;20768;-66
2022/04/21 05:34:34;;;;;;;13.00;8.73;;;12.30;89.60;;;;;;5068579;28;20456;-69
2022/04/21 05:37:01;;;;;;;13.48;8.70;;;12.30;89.20;;;;;;5065987;28;20401;-67
2022/04/21 05:39:28;;;;;;;11.63;7.70;;;12.30;89.10;;;;;;5084958;28;20426;-68
2022/04/21 05:41:55;;;;;;;13.15;8.55;;;12.40;89.00;;;;;;5084166;28;20405;-68
2022/04/21 05:44:21;;;;;;;13.43;8.52;;;12.40;88.90;;;;;;5086282;28;20439;-67
2022/04/21 05:46:47;;;;;;;12.97;8.77;;;12.40;88.70;;;;;;5053084;28;20405;-66
2022/04/21 05:49:14;;;;;;;15.17;8.70;;;12.40;88.70;;;;;;5067613;28;20449;-68
2022/04/21 05:51:41;;;;;;;13.20;8.50;;;12.50;88.50;;;;;;5085083;28;20894;-67
2022/04/21 05:54:07;;;;;;;14.25;8.98;;;12.50;88.40;;;;;;5090214;28;20462;-69
2022/04/21 05:56:34;;;;;;;12.57;8.40;;;12.50;88.70;;;;;;5067782;28;20413;-68
2022/04/21 05:59:00;;;;;;;14.68;8.60;;;12.50;88.40;;;;;;5069771;28;20488;-68
2022/04/21 06:01:26;;;;;;;14.20;8.50;;;12.60;88.30;;;;;;5085968;28;20603;-69
2022/04/21 06:03:52;;;;;;;12.70;8.07;;;12.60;87.80;;;;;;5084454;28;20409;-68
2022/04/21 06:06:18;;;;;;;27.10;8.32;;;12.60;87.60;;;;;;5070539;28;20421;-69
2022/04/21 06:08:44;;;;;;;18.63;7.78;;;12.70;88.30;;;;;;5064065;28;20413;-67
2022/04/21 06:11:13;;;;;;;12.07;7.25;;;12.80;88.10;;;;;;5084537;28;20500;-70
2022/04/21 06:13:41;;;;;;;13.13;7.70;;;12.80;87.40;;;;;;5051207;28;20406;-69
2022/04/21 06:16:07;;;;;;;12.67;7.70;;;12.90;86.90;;;;;;5067461;28;20434;-69
2022/04/21 06:18:33;;;;;;;13.40;7.20;;;12.90;86.80;;;;;;5097192;28;20412;-70
2022/04/21 06:20:59;;;;;;;11.90;7.25;;;12.90;86.30;;;;;;5097659;28;20916;-71
2022/04/21 06:23:24;;;;;;;12.50;7.40;;;13.00;86.40;;;;;;5084375;28;20413;-69
2022/04/21 06:25:58;;;;;;;11.43;7.07;;;13.00;86.30;;;;;;5083850;28;20910;-70
2022/04/21 06:28:25;;;;;;;12.35;7.53;;;13.00;85.70;;;;;;5064452;28;20433;-70
2022/04/21 06:30:51;;;;;;;11.77;6.63;;;13.10;85.50;;;;;;5087143;28;20410;-70
2022/04/21 06:33:19;;;;;;;11.02;7.60;;;13.10;84.70;;;;;;5101390;28;20414;-69
2022/04/21 06:35:45;;;;;;;11.55;7.15;;;13.20;84.40;;;;;;5065153;28;20726;-69
2022/04/21 06:38:12;;;;;;;13.38;7.68;;;13.20;83.90;;;;;;5086350;28;20801;-70
2022/04/21 06:40:38;;;;;;;15.07;7.95;;;13.30;83.50;;;;;;5086663;28;20408;-69
2022/04/21 06:48:01;;;;;;;14.27;8.10;;;13.30;83.10;;;;;;5067180;28;20409;-71
2022/04/21 06:48:36;;;;;;;13.77;8.23;;;13.40;82.60;;;;;;5086140;28;20448;-71
2022/04/21 06:51:02;;;;;;;15.77;8.15;;;13.40;82.20;;;;;;5088456;28;20402;-69
2022/04/21 06:53:29;;;;;;;21.08;9.15;;;13.40;81.90;;;;;;5068611;28;20390;-69
2022/04/21 06:55:55;;;;;;;18.20;8.23;;;13.50;81.90;;;;;;5083717;28;20397;-70
2022/04/21 06:58:21;;;;;;;12.57;8.20;;;13.50;81.70;;;;;;5083345;28;20429;-70
2022/04/21 07:00:47;;;;;;;11.85;8.02;;;13.50;81.50;;;;;;5067385;28;20407;-69
2022/04/21 07:03:13;;;;;;;10.48;7.20;;;13.50;81.40;;;;;;5089033;28;20402;-69
2022/04/21 07:05:39;;;;;;;13.48;7.70;;;13.50;81.10;;;;;;5088253;28;20397;-70
2022/04/21 07:08:05;;;;;;;11.07;7.73;;;13.60;80.60;;;;;;5089595;28;20497;-68
2022/04/21 07:10:30;;;;;;;9.70;6.75;;;13.60;81.00;;;;;;5072750;28;20459;-70
2022/04/21 07:12:56;;;;;;;9.67;6.93;;;13.60;80.60;;;;;;5102870;28;20410;-69
2022/04/21 07:15:21;;;;;;;11.10;7.30;;;13.70;80.10;;;;;;5075623;28;20483;-69
2022/04/21 07:17:47;;;;;;;13.85;7.43;;;13.70;79.40;;;;;;5081753;28;20805;-69
2022/04/21 07:20:13;;;;;;;12.07;6.40;;;13.70;79.00;;;;;;5086475;28;20412;-71
2022/04/21 07:22:39;;;;;;;12.45;7.25;;;13.70;79.10;;;;;;5083565;28;20422;-68
2022/04/21 07:25:08;;;;;;;13.87;8.37;;;13.80;79.00;;;;;;5077401;28;20464;-71
2022/04/21 07:27:34;;;;;;;19.65;8.25;;;13.80;78.80;;;;;;5086012;28;20497;-69
2022/04/21 07:30:01;;;;;;;11.93;8.45;;;13.90;78.80;;;;;;5068247;28;20494;-69
2022/04/21 07:32:26;;;;;;;12.88;7.50;;;13.90;78.30;;;;;;5070512;28;20446;-71
2022/04/21 07:34:52;;;;;;;12.32;8.20;;;13.90;78.40;;;;;;5086294;28;20418;-71
2022/04/21 07:37:18;;;;;;;14.00;7.43;;;14.00;79.00;;;;;;5083703;28;20488;-70
2022/04/21 07:39:43;;;;;;;13.50;7.33;;;14.00;78.50;;;;;;5086707;28;20420;-70
2022/04/21 07:42:10;;;;;;;13.00;7.07;;;14.10;78.50;;;;;;5071792;28;20411;-70
2022/04/21 07:44:36;;;;;;;10.32;6.72;;;14.10;78.10;;;;;;5088675;28;20404;-69
2022/04/21 07:47:04;;;;;;;10.18;5.95;;;14.20;77.80;;;;;;5094510;28;20418;-67
2022/04/21 07:49:46;;;;;;;9.10;6.23;;;14.30;77.40;;;;;;5091258;28;20488;-67
2022/04/21 07:55:23;;;;;;;10.75;6.70;;;14.30;77.90;;;;;;5092096;28;20425;-66
2022/04/21 07:57:49;;;;;;;10.73;6.53;;;14.40;78.60;;;;;;5090548;28;20490;-68
2022/04/21 08:00:16;;;;;;;12.85;7.45;;;14.50;77.80;;;;;;5094954;28;20758;-68
2022/04/21 08:02:44;;;;;;;11.25;6.60;;;14.60;77.80;;;;;;5087023;28;20458;-68
2022/04/21 08:05:12;;;;;;;10.45;7.28;;;14.60;77.80;;;;;;5088387;28;20459;-69
2022/04/21 08:07:38;;;;;;;9.73;6.85;;;14.70;77.50;;;;;;5071508;28;20410;-68
2022/04/21 08:10:07;;;;;;;7.80;6.28;;;14.80;77.10;;;;;;5085837;28;20409;-68
2022/04/21 08:12:45;;;;;;;11.85;6.30;;;14.90;76.90;;;;;;5088651;28;20405;-68
2022/04/21 08:15:13;;;;;;;12.68;6.35;;;15.00;75.60;;;;;;5089852;28;20398;-69
2022/04/21 08:17:40;;;;;;;12.27;6.28;;;15.20;74.60;;;;;;5087903;28;20473;-67
2022/04/21 08:20:08;;;;;;;11.07;6.15;;;15.40;74.60;;;;;;5096866;28;20410;-68
2022/04/21 08:22:34;;;;;;;10.75;6.40;;;15.50;73.90;;;;;;5087648;28;20753;-68
2022/04/21 08:33:14;;;;;;;11.15;6.78;;;16.10;72.50;;;;;;5088216;28;20445;-68
2022/04/21 08:35:41;;;;;;;14.27;7.10;;;16.50;70.90;;;;;;5091980;28;20166;-69
2022/04/21 08:38:08;;;;;;;11.20;6.90;;;16.20;73.20;;;;;;5093289;28;20415;-68
2022/04/21 08:40:36;;;;;;;7.30;6.25;;;16.90;68.80;;;;;;5086742;28;21235;-68
2022/04/21 08:43:07;;;;;;;;;;;17.70;64.00;;;;;;5070647;28;20401;-69
2022/04/21 08:45:33;;;;;;;;;;;18.40;61.00;;;;;;5090106;28;19961;-68
2022/04/21 08:48:01;;;;;;;;;;;18.00;65.70;;;;;;5091484;28;19920;-70
2022/04/21 08:50:27;;;;;;;;;;;18.00;68.50;;;;;;5089681;28;19911;-70
2022/04/21 08:52:54;;;;;;;10.25;5.40;;;18.20;68.50;;;;;;5091595;28;20391;-70
2022/04/21 08:55:20;;;;;;;7.63;4.88;;;18.70;67.60;;;;;;5100151;28;20207;-69
2022/04/21 08:57:45;;;;;;;7.38;4.68;;;19.30;65.20;;;;;;5096153;28;20875;-70
2022/04/21 09:00:11;;;;;;;7.85;3.95;;;22.00;48.10;;;;;;5100414;28;20406;-67
2022/04/21 09:02:40;;;;;;;6.50;3.95;;;23.70;42.70;;;;;;5070084;28;20805;-67
2022/04/21 09:05:06;;;;;;;6.82;3.83;;;24.90;39.30;;;;;;5088536;28;20808;-69
2022/04/21 09:07:41;;;;;;;6.18;4.13;;;25.90;37.20;;;;;;5076805;28;20424;-68
2022/04/21 09:10:11;;;;;;;;;;;26.90;35.50;;;;;;5095310;28;20413;-68
2022/04/21 09:12:44;;;;;;;;;;;27.80;32.90;;;;;;5071211;28;20350;-68
2022/04/21 09:15:12;;;;;;;;;;;26.80;35.80;;;;;;5090831;28;20007;-69
2022/04/21 09:17:48;;;;;;;;;;;28.20;30.40;;;;;;5071944;28;19912;-70
2022/04/21 09:20:21;;;;;;;;;;;28.70;29.20;;;;;;5073101;28;19916;-69
2022/04/21 09:22:54;;;;;;;;;;;29.30;28.00;;;;;;5072700;28;19907;-69
2022/04/21 09:25:24;;;;;;;;;;;28.00;31.30;;;;;;5090905;28;19920;-68
2022/04/21 09:27:50;;;;;;;;;;;29.30;28.40;;;;;;5087533;28;19952;-68
2022/04/21 09:30:16;;;;;;;7.05;3.10;;;28.50;30.40;;;;;;5075564;28;20021;-67
2022/04/21 09:32:51;;;;;;;4.93;2.90;;;28.20;32.10;;;;;;5075395;28;20404;-68
2022/04/21 09:35:18;;;;;;;8.13;2.90;;;30.30;28.10;;;;;;5087760;28;20925;-69
2022/04/21 09:37:56;;;;;;;4.47;2.50;;;31.40;26.70;;;;;;5097806;28;20420;-70
2022/04/21 09:40:24;;;;;;;6.18;2.80;;;32.00;25.10;;;;;;5085269;28;20428;-69
2022/04/21 09:43:03;;;;;;;3.63;2.60;;;32.40;25.10;;;;;;5085633;28;20917;-68
2022/04/21 09:48:38;;;;;;;11.70;2.93;;;33.00;24.40;;;;;;5086426;28;20425;-69
2022/04/21 09:51:11;;;;;;;;;;;33.40;23.70;;;;;;5092820;28;20186;-68
2022/04/21 09:53:53;;;;;;;;;;;32.10;25.80;;;;;;5070010;28;20281;-69
2022/04/21 09:56:29;;;;;;;;;;;31.70;27.00;;;;;;5090862;28;20021;-71
2022/04/21 09:58:54;;;;;;;;;;;31.30;28.80;;;;;;5083040;28;20003;-69
2022/04/21 10:01:20;;;;;;;;;;;31.10;29.40;;;;;;5069208;28;20344;-73
2022/04/21 10:03:46;;;;;;;;;;;31.10;30.10;;;;;;5095601;28;19964;-71
2022/04/21 10:06:13;;;;;;;;;;;31.20;30.80;;;;;;5093116;28;19999;-70
2022/04/21 10:08:40;;;;;;;;;;;31.30;31.60;;;;;;5081168;28;20008;-71
2022/04/21 10:11:06;;;;;;;;;;;31.50;32.30;;;;;;5071186;28;19915;-69
2022/04/21 10:13:31;;;;;;;;;;;31.80;32.70;;;;;;5087880;28;20221;-71
2022/04/21 10:15:57;;;;;;;;;;;32.10;33.60;;;;;;5071278;28;19977;-70
2022/04/21 10:18:24;;;;;;;;;;;32.30;34.10;;;;;;5094507;28;19920;-71
2022/04/21 10:20:52;;;;;;;;;;;32.50;34.20;;;;;;5085796;28;19994;-71
2022/04/21 10:23:18;;;;;;;;;;;32.70;34.60;;;;;;5070751;28;19912;-70
2022/04/21 10:25:44;;;;;;;;;;;32.80;34.70;;;;;;5096915;28;19912;-70
2022/04/21 10:28:28;;;;;;;;;;;32.90;33.30;;;;;;5092900;28;19965;-71
2022/04/21 10:30:56;;;;;;;;;;;33.00;32.20;;;;;;5093627;28;19911;-70
2022/04/21 10:33:42;;;;;;;;;;;33.00;34.90;;;;;;5094346;28;20391;-71
2022/04/21 10:36:07;;;;;;;;;;;33.10;35.50;;;;;;5093252;28;20272;-70
2022/04/21 10:38:33;;;;;;;;;;;33.30;34.00;;;;;;5073810;28;19942;-71
2022/04/21 10:41:03;;;;;;;;;;;33.30;32.90;;;;;;5089793;28;19916;-71
2022/04/21 10:43:47;;;;;;;;;;;33.40;35.30;;;;;;5080204;28;20398;-71
2022/04/21 10:46:21;;;;;;;;;;;33.60;35.20;;;;;;5072504;28;20394;-70
2022/04/21 10:48:47;;;;;;;;;;;34.00;36.00;;;;;;5062017;28;19950;-72
2022/04/21 10:51:12;;;;;;;;;;;34.20;34.90;;;;;;5095776;28;20352;-70
2022/04/21 10:59:31;;;;;;;;;;;34.30;35.30;;;;;;5089230;28;19916;-70
2022/04/21 11:02:10;;;;;;;;;;;34.40;35.90;;;;;;5068145;28;20451;-72
2022/04/21 11:04:36;;;;;;;;;;;34.60;34.80;;;;;;5102562;28;19927;-71
2022/04/21 11:07:05;;;;;;;;;;;34.60;35.10;;;;;;5086936;28;20361;-70
2022/04/21 11:09:37;;;;;;;;;;;34.60;34.70;;;;;;5098302;28;19916;-70
2022/04/21 11:12:04;;;;;;;;;;;34.70;33.90;;;;;;5082684;28;19977;-70
2022/04/21 11:14:34;;;;;;;;;;;34.70;34.40;;;;;;5094935;28;19912;-71
2022/04/21 11:17:01;;;;;;;;;;;34.70;34.60;;;;;;5101791;28;20421;-70
2022/04/21 11:19:30;;;;;;;;;;;34.70;33.60;;;;;;5079438;28;19913;-69
2022/04/21 11:22:05;;;;;;;;;;;34.60;33.50;;;;;;5074320;28;19909;-71
2022/04/21 11:24:50;;;;;;;;;;;34.70;34.00;;;;;;5075358;28;19916;-70
2022/04/21 11:27:16;;;;;;;;;;;34.70;34.10;;;;;;5110689;28;19912;-71
2022/04/21 11:29:41;;;;;;;;;;;34.70;34.00;;;;;;5099774;28;20381;-72
2022/04/21 11:32:08;;;;;;;;;;;34.70;33.80;;;;;;5089642;28;19915;-71
2022/04/21 11:34:34;;;;;;;;;;;34.80;34.10;;;;;;5101524;28;19915;-70
2022/04/21 11:37:02;;;;;;;;;;;34.80;34.30;;;;;;5093484;28;20296;-70
2022/04/21 11:39:28;;;;;;;;;;;34.70;33.90;;;;;;5090890;28;19916;-70
2022/04/21 11:41:54;;;;;;;;;;;34.70;33.50;;;;;;5102076;28;19915;-70
2022/04/21 11:44:20;;;;;;;;;;;34.60;33.20;;;;;;5079321;28;20523;-70
2022/04/21 11:46:46;;;;;;;;;;;34.50;33.90;;;;;;5091016;28;20001;-70
2022/04/21 11:49:11;;;;;;;;;;;34.60;32.90;;;;;;5090670;28;20396;-71
2022/04/21 11:51:38;;;;;;;;;;;34.90;33.20;;;;;;5090743;28;19919;-69
2022/04/21 11:54:04;;;;;;;;;;;35.10;33.30;;;;;;5091642;28;19984;-69
2022/04/21 11:56:30;;;;;;;;;;;35.20;32.70;;;;;;5104726;28;20284;-67
2022/04/21 11:58:55;;;;;;;;;;;35.30;32.80;;;;;;5091953;28;19916;-68
2022/04/21 12:06:53;;;;;;;;;;;35.50;32.40;;;;;;5089735;28;19977;-69
2022/04/21 12:09:21;;;;;;;5.57;2.30;;;36.00;29.30;;;;;;5090571;28;20439;-68
2022/04/21 12:11:49;;;;;;;4.13;2.03;;;38.30;20.60;;;;;;5070011;28;20414;-68
2022/04/21 12:14:16;;;;;;;4.87;2.20;;;39.00;19.40;;;;;;5089926;28;20397;-69
2022/04/21 12:16:46;;;;;;;10.20;2.67;;;39.40;19.30;;;;;;5091388;28;20485;-68
2022/04/21 12:19:16;;;;;;;3.60;1.80;;;39.60;19.20;;;;;;5071237;28;20464;-67
2022/04/21 12:21:43;;;;;;;;;;;39.50;20.00;;;;;;5088496;28;20433;-71
2022/04/21 12:24:14;;;;;;;;;;;39.40;19.20;;;;;;5088576;28;20003;-68
2022/04/21 12:26:47;;;;;;;;;;;39.10;19.80;;;;;;5074145;28;19923;-70
2022/04/21 12:29:12;;;;;;;;;;;38.70;19.50;;;;;;5089722;28;20029;-69
2022/04/21 12:31:57;;;;;;;4.53;2.13;;;38.10;20.00;;;;;;5088804;28;19999;-69
2022/04/21 12:34:28;;;;;;;5.18;2.13;;;37.70;21.20;;;;;;5095989;28;20445;-70
2022/04/21 12:36:59;;;;;;;4.20;2.30;;;37.30;20.60;;;;;;5089640;28;20510;-68
2022/04/21 12:39:26;;;;;;;4.68;2.22;;;37.00;20.80;;;;;;5084024;28;20423;-68
2022/04/21 12:41:53;;;;;;;5.03;2.80;;;36.40;21.90;;;;;;5086779;28;20512;-70
2022/04/21 12:44:23;;;;;;;4.13;2.43;;;36.10;21.00;;;;;;5089029;28;20939;-66
2022/04/21 12:47:00;;;;;;;9.60;2.50;;;35.90;21.60;;;;;;5071534;28;20452;-70
2022/04/21 12:50:03;;;;;;;3.50;2.50;;;35.70;21.30;;;;;;5087618;28;20418;-69
2022/04/21 12:52:32;;;;;;;4.95;2.60;;;35.50;21.80;;;;;;5089370;28;20386;-71
2022/04/21 12:54:58;;;;;;;7.70;2.65;;;35.20;22.10;;;;;;5092383;28;20406;-72
2022/04/21 12:57:24;;;;;;;7.65;2.40;;;35.00;22.80;;;;;;5094727;28;20402;-71
2022/04/21 12:59:50;;;;;;;6.00;2.67;;;34.90;23.60;;;;;;5089900;28;20425;-73
2022/04/21 13:02:18;;;;;;;6.05;2.17;;;34.70;23.70;;;;;;5088080;28;20435;-73
2022/04/21 13:04:44;;;;;;;6.50;2.40;;;34.60;23.50;;;;;;5087661;28;20429;-69
2022/04/21 13:07:10;;;;;;;3.95;2.20;;;34.30;23.30;;;;;;5100709;28;20402;-70
2022/04/21 13:09:36;;;;;;;3.70;2.30;;;34.00;23.50;;;;;;5082540;28;20516;-70
2022/04/21 13:12:02;;;;;;;4.15;2.25;;;33.80;24.00;;;;;;5085464;28;20492;-71
2022/04/21 13:14:28;;;;;;;4.85;2.03;;;33.50;24.00;;;;;;5076320;28;20405;-70
2022/04/21 13:16:54;;;;;;;6.13;3.50;;;33.10;24.50;;;;;;5089276;28;20466;-69
2022/04/21 13:19:19;;;;;;;5.50;2.40;;;32.70;25.70;;;;;;5074199;28;20793;-70
2022/04/21 13:21:57;;;;;;;5.30;2.10;;;32.40;24.90;;;;;;5094233;28;20413;-70
2022/04/21 13:24:24;;;;;;;5.15;2.10;;;32.10;25.30;;;;;;5069853;28;20418;-69
2022/04/21 13:26:52;;;;;;;7.35;2.67;;;31.90;25.50;;;;;;5069932;28;20453;-69
2022/04/21 13:29:18;;;;;;;4.30;2.50;;;31.70;25.50;;;;;;5087680;28;20441;-71
2022/04/21 13:34:28;;;;;;;5.57;2.10;;;31.30;25.90;;;;;;5086258;28;20398;-70
2022/04/21 13:36:54;;;;;;;6.83;2.90;;;31.00;26.20;;;;;;5071143;28;20466;-70
2022/04/21 13:39:20;;;;;;;6.10;2.58;;;30.90;25.30;;;;;;5074547;28;20424;-70
2022/04/21 13:41:48;;;;;;;6.60;2.10;;;30.80;25.60;;;;;;5067963;28;20404;-69
2022/04/21 13:44:15;;;;;;;7.28;2.80;;;30.70;26.80;;;;;;5085619;28;21300;-69
2022/04/21 13:46:43;;;;;;;6.15;2.50;;;30.50;27.50;;;;;;5086541;28;20445;-69
2022/04/21 13:49:09;;;;;;;6.05;2.47;;;30.30;26.30;;;;;;5085526;28;20778;-70
2022/04/21 13:51:36;;;;;;;5.72;2.15;;;30.10;26.30;;;;;;5086999;28;20786;-70
2022/04/21 13:54:03;;;;;;;7.15;2.40;;;30.00;26.70;;;;;;5084436;28;20484;-69
2022/04/21 13:56:29;;;;;;;3.33;2.10;;;29.90;26.40;;;;;;5091271;28;20413;-70